Time;durP1;ratioP1;P1;durP2;ratioP2;P2;SDS_P1;SDS_P2;PMS_P1;PMS_P2;Temp;Humidity;BMP_temperature;BMP_pressure;BME280_temperature;BME280_humidity;BME280_pressure;Samples;Min_cycle;Max_cycle;Signal;HPM_P1;HPM_P2
2023/05/28 00:01:06;;;;;;;;;;;20.70;92.80;;;;;;5114973;28;19908;-60
2023/05/28 00:03:32;;;;;;;;;;;20.70;92.80;;;;;;5115104;28;19919;-59
2023/05/28 00:05:58;;;;;;;;;;;20.60;92.70;;;;;;5114753;28;20003;-60
2023/05/28 00:08:23;;;;;;;;;;;20.60;92.70;;;;;;5110986;28;19947;-60
2023/05/28 00:10:49;;;;;;;;;;;20.70;92.80;;;;;;5094676;28;19951;-60
2023/05/28 00:13:17;;;;;;;;;;;20.70;92.80;;;;;;5094384;28;20002;-60
2023/05/28 00:15:43;;;;;;;;;;;20.60;92.70;;;;;;5094530;28;20235;-60
2023/05/28 00:18:11;;;;;;;;;;;20.60;92.70;;;;;;5094505;28;19912;-59
2023/05/28 00:20:37;;;;;;;;;;;20.60;92.60;;;;;;5097538;28;19908;-60
2023/05/28 00:23:03;;;;;;;;;;;20.60;92.60;;;;;;5096579;28;19919;-60
2023/05/28 00:25:28;;;;;;;;;;;20.60;92.60;;;;;;5114480;28;19911;-59
2023/05/28 00:27:54;;;;;;;;;;;20.60;92.70;;;;;;5114500;28;19908;-59
2023/05/28 00:30:19;;;;;;;;;;;20.60;92.60;;;;;;5114696;28;20006;-59
2023/05/28 00:32:45;;;;;;;;;;;20.60;92.60;;;;;;5114683;28;19953;-59
2023/05/28 00:35:10;;;;;;;;;;;20.60;92.60;;;;;;5114693;28;19931;-60
2023/05/28 00:37:36;;;;;;;;;;;20.60;92.70;;;;;;5114279;28;19915;-60
2023/05/28 00:40:02;;;;;;;;;;;20.60;92.60;;;;;;5114598;28;19954;-60
2023/05/28 00:42:27;;;;;;;;;;;20.60;92.60;;;;;;5114523;28;19919;-59
2023/05/28 00:44:53;;;;;;;;;;;20.60;92.70;;;;;;5114728;28;20362;-59
2023/05/28 00:47:19;;;;;;;;;;;20.60;92.40;;;;;;5096195;28;20318;-59
2023/05/28 00:49:48;;;;;;;;;;;20.60;92.60;;;;;;5095953;28;19908;-59
2023/05/28 00:52:14;;;;;;;;;;;20.60;92.70;;;;;;5114056;28;19908;-59
2023/05/28 00:54:39;;;;;;;;;;;20.60;92.80;;;;;;5114500;28;20018;-59
2023/05/28 00:57:05;;;;;;;;;;;20.60;92.60;;;;;;5114404;28;19914;-59
2023/05/28 00:59:33;;;;;;;;;;;20.60;92.60;;;;;;5114431;28;19914;-59
2023/05/28 01:02:00;;;;;;;;;;;20.60;92.50;;;;;;5114452;28;19919;-59
2023/05/28 01:04:28;;;;;;;;;;;20.60;92.50;;;;;;5114356;28;19925;-59
2023/05/28 01:06:56;;;;;;;;;;;20.60;92.60;;;;;;5114233;28;19908;-60
2023/05/28 01:09:22;;;;;;;;;;;20.60;92.70;;;;;;5102662;28;20352;-59
2023/05/28 01:11:50;;;;;;;;;;;20.60;92.50;;;;;;5097730;28;20417;-59
2023/05/28 01:14:16;;;;;;;;;;;20.60;92.50;;;;;;5097954;28;19908;-60
2023/05/28 01:16:41;;;;;;;;;;;20.60;92.70;;;;;;5097873;28;20278;-59
2023/05/28 01:19:08;;;;;;;;;;;20.60;92.80;;;;;;5097546;28;19916;-59
2023/05/28 01:21:34;;;;;;;;;;;20.60;92.80;;;;;;5108703;28;19908;-59
2023/05/28 01:24:00;;;;;;;;;;;20.60;92.80;;;;;;5118000;28;19926;-60
2023/05/28 01:26:27;;;;;;;;;;;20.60;92.70;;;;;;5118155;28;19908;-59
2023/05/28 01:28:52;;;;;;;;;;;20.60;92.60;;;;;;5117824;28;20002;-59
2023/05/28 01:31:18;;;;;;;;;;;20.60;92.70;;;;;;5117646;28;19947;-59
2023/05/28 01:33:44;;;;;;;;;;;20.60;92.70;;;;;;5118007;28;20290;-59
2023/05/28 01:36:19;;;;;;;;;;;20.60;92.60;;;;;;5117926;28;19912;-59
2023/05/28 01:38:47;;;;;;;;;;;20.60;92.70;;;;;;5117520;28;19976;-59
2023/05/28 01:41:13;;;;;;;;;;;20.60;92.70;;;;;;5117816;28;19907;-59
2023/05/28 01:43:40;;;;;;;;;;;20.60;92.80;;;;;;5117532;28;20262;-59
2023/05/28 01:46:06;;;;;;;;;;;20.60;92.90;;;;;;5117819;28;19908;-59
2023/05/28 01:48:31;;;;;;;;;;;20.60;92.90;;;;;;5118140;28;19907;-59
2023/05/28 01:50:57;;;;;;;;;;;20.60;92.90;;;;;;5117664;28;19916;-59
2023/05/28 01:53:22;;;;;;;;;;;20.60;92.90;;;;;;5117355;28;20003;-60
2023/05/28 01:55:48;;;;;;;;;;;20.60;92.90;;;;;;5117609;28;19907;-59
2023/05/28 01:58:13;;;;;;;;;;;20.60;92.90;;;;;;5117550;28;19907;-59
2023/05/28 02:00:42;;;;;;;;;;;20.50;93.00;;;;;;5117310;28;19919;-59
2023/05/28 02:03:11;;;;;;;;;;;20.60;92.90;;;;;;5117131;28;19919;-59
2023/05/28 02:05:37;;;;;;;;;;;20.60;93.00;;;;;;5099108;28;19911;-59
2023/05/28 02:08:02;;;;;;;;;;;20.60;93.00;;;;;;5116379;28;20014;-60
2023/05/28 02:10:28;;;;;;;;;;;20.60;93.00;;;;;;5096923;28;20002;-59
2023/05/28 02:12:53;;;;;;;;;;;20.60;93.00;;;;;;5096924;28;20412;-59
2023/05/28 02:15:20;;;;;;;;;;;20.50;92.90;;;;;;5096467;28;20262;-59
2023/05/28 02:17:45;;;;;;;;;;;20.60;93.00;;;;;;5078742;28;20267;-59
2023/05/28 02:20:11;;;;;;;;;;;20.60;93.00;;;;;;5095973;28;19908;-59
2023/05/28 02:22:37;;;;;;;;;;;20.50;92.90;;;;;;5116737;28;20018;-59
2023/05/28 02:25:03;;;;;;;;;;;20.50;93.00;;;;;;5117085;28;19918;-59
2023/05/28 02:27:28;;;;;;;;;;;20.60;93.00;;;;;;5117009;28;19908;-59
2023/05/28 02:29:54;;;;;;;;;;;20.60;93.00;;;;;;5116638;28;19908;-59
2023/05/28 02:32:19;;;;;;;;;;;20.60;93.00;;;;;;5116948;28;19954;-59
2023/05/28 02:34:45;;;;;;;;;;;20.60;93.00;;;;;;5116834;28;20339;-59
2023/05/28 02:37:10;;;;;;;;;;;20.60;93.00;;;;;;5116839;28;19908;-59
2023/05/28 02:39:36;;;;;;;;;;;20.60;93.00;;;;;;5116766;28;19911;-59
2023/05/28 02:42:01;;;;;;;;;;;20.50;93.00;;;;;;5116372;28;19908;-59
2023/05/28 02:44:27;;;;;;;;;;;20.50;93.00;;;;;;5116594;28;20358;-59
2023/05/28 02:46:52;;;;;;;;;;;20.50;93.00;;;;;;5116578;28;19907;-59
2023/05/28 02:49:18;;;;;;;;;;;20.60;93.00;;;;;;5098273;28;19907;-60
2023/05/28 02:51:43;;;;;;;;;;;20.50;93.00;;;;;;5116498;28;19907;-59
2023/05/28 02:54:09;;;;;;;;;;;20.50;93.00;;;;;;5116455;28;19968;-59
2023/05/28 02:56:34;;;;;;;;;;;20.50;93.00;;;;;;5097962;28;19922;-60
2023/05/28 02:59:00;;;;;;;;;;;20.50;93.00;;;;;;5116128;28;19908;-59
2023/05/28 03:01:26;;;;;;;;;;;20.50;93.00;;;;;;5116632;28;19915;-60
2023/05/28 03:03:52;;;;;;;;;;;20.50;93.00;;;;;;5116286;28;19912;-59
2023/05/28 03:06:17;;;;;;;;;;;20.50;93.00;;;;;;5116251;28;20347;-59
2023/05/28 03:08:43;;;;;;;;;;;20.50;93.00;;;;;;5109716;28;19993;-59
2023/05/28 03:11:08;;;;;;;;;;;20.50;93.00;;;;;;5095749;28;20359;-59
2023/05/28 03:13:34;;;;;;;;;;;20.50;93.00;;;;;;5095294;28;19948;-59
2023/05/28 03:15:59;;;;;;;;;;;20.50;93.00;;;;;;5095357;28;19919;-59
2023/05/28 03:18:25;;;;;;;;;;;20.50;93.00;;;;;;5095888;28;19908;-59
2023/05/28 03:20:50;;;;;;;;;;;20.50;93.10;;;;;;5100181;28;19908;-59
2023/05/28 03:23:16;;;;;;;;;;;20.50;93.10;;;;;;5115548;28;19911;-59
2023/05/28 03:25:41;;;;;;;;;;;20.50;93.10;;;;;;5116096;28;19912;-59
2023/05/28 03:28:07;;;;;;;;;;;20.50;93.10;;;;;;5115787;28;20330;-59
2023/05/28 03:30:33;;;;;;;;;;;20.50;93.10;;;;;;5097493;28;19953;-60
2023/05/28 03:32:58;;;;;;;;;;;20.50;93.20;;;;;;5114463;28;20010;-59
2023/05/28 03:35:24;;;;;;;;;;;20.50;93.20;;;;;;5115680;28;19915;-59
2023/05/28 03:37:49;;;;;;;;;;;20.50;93.20;;;;;;5115717;28;20270;-59
2023/05/28 03:40:15;;;;;;;;;;;20.50;93.20;;;;;;5115316;28;19914;-59
2023/05/28 03:42:40;;;;;;;;;;;20.50;93.20;;;;;;5115204;28;19919;-59
2023/05/28 03:45:06;;;;;;;;;;;20.50;93.20;;;;;;5115668;28;20007;-58
2023/05/28 03:47:32;;;;;;;;;;;20.50;93.30;;;;;;5115450;28;19922;-59
2023/05/28 03:49:58;;;;;;;;;;;20.50;93.30;;;;;;5097141;28;19953;-56
2023/05/28 03:52:24;;;;;;;;;;;20.50;93.20;;;;;;5115281;28;19907;-58
2023/05/28 03:54:49;;;;;;;;;;;20.40;91.40;;;;;;5115217;28;20007;-59
2023/05/28 03:57:15;;;;;;;;;;;20.40;91.60;;;;;;5089297;28;19913;-59
2023/05/28 03:59:40;;;;;;;;;;;20.50;91.80;;;;;;5100183;28;19919;-59
2023/05/28 04:02:06;;;;;;;;;;;20.50;92.20;;;;;;5099715;28;19908;-59
2023/05/28 04:04:31;;;;;;;;;;;20.50;92.40;;;;;;5105260;28;20401;-59
2023/05/28 04:06:57;;;;;;;;;;;20.50;92.60;;;;;;5095221;28;19916;-59
2023/05/28 04:09:22;;;;;;;;;;;20.50;92.60;;;;;;5076035;28;19908;-59
2023/05/28 04:11:48;;;;;;;;;;;20.50;92.50;;;;;;5091485;28;19916;-60
2023/05/28 04:14:14;;;;;;;;;;;20.50;92.60;;;;;;5112452;28;19912;-59
2023/05/28 04:16:39;;;;;;;;;;;20.50;92.60;;;;;;5106531;28;19916;-59
2023/05/28 04:19:05;;;;;;;;;;;20.50;92.60;;;;;;5114493;28;19911;-59
2023/05/28 04:21:31;;;;;;;;;;;20.50;92.60;;;;;;5114775;28;19908;-59
2023/05/28 04:23:57;;;;;;;;;;;20.50;92.60;;;;;;5102197;28;19931;-59
2023/05/28 04:26:23;;;;;;;;;;;20.50;92.70;;;;;;5100863;28;20314;-58
2023/05/28 04:28:50;;;;;;;;;;;20.50;92.80;;;;;;5108546;28;20346;-59
2023/05/28 04:31:16;;;;;;;;;;;20.50;92.90;;;;;;5092718;28;19912;-59
2023/05/28 04:33:41;;;;;;;;;;;20.50;92.90;;;;;;5073947;28;19908;-59
2023/05/28 04:36:13;;;;;;;;;;;20.50;92.90;;;;;;5074415;28;19919;-59
2023/05/28 04:38:39;;;;;;;;;;;20.50;93.00;;;;;;5073825;28;19909;-59
2023/05/28 04:41:05;;;;;;;;;;;20.50;93.00;;;;;;5074318;28;19913;-59
2023/05/28 04:43:30;;;;;;;;;;;20.50;93.00;;;;;;5073589;28;19920;-59
2023/05/28 04:45:58;;;;;;;;;;;20.50;93.10;;;;;;5074040;28;19909;-59
2023/05/28 04:48:23;;;;;;;;;;;20.50;93.10;;;;;;5073723;28;20252;-59
2023/05/28 04:50:50;;;;;;;;;;;20.50;93.10;;;;;;5073959;28;19920;-59
2023/05/28 04:53:15;;;;;;;;;;;20.50;93.10;;;;;;5073785;28;20011;-59
2023/05/28 04:55:41;;;;;;;;;;;20.50;93.10;;;;;;5073659;28;20425;-59
2023/05/28 04:58:07;;;;;;;;;;;20.50;93.10;;;;;;5073630;28;19995;-59
2023/05/28 05:00:34;;;;;;;;;;;20.50;93.10;;;;;;5055789;28;19909;-59
2023/05/28 05:03:00;;;;;;;;;;;20.50;93.10;;;;;;5073712;28;20438;-60
2023/05/28 05:05:25;;;;;;;;;;;20.50;93.10;;;;;;5073761;28;19944;-59
2023/05/28 05:07:51;;;;;;;;;;;20.50;93.10;;;;;;5073703;28;20009;-59
2023/05/28 05:10:17;;;;;;;;;;;20.50;93.10;;;;;;5093365;28;19944;-59
2023/05/28 05:12:42;;;;;;;;;;;20.50;93.10;;;;;;5093859;28;20005;-59
2023/05/28 05:15:08;;;;;;;;;;;20.50;93.10;;;;;;5094133;28;19908;-59
2023/05/28 05:17:34;;;;;;;;;;;20.50;93.10;;;;;;5093576;28;19909;-59
2023/05/28 05:20:01;;;;;;;;;;;20.50;93.10;;;;;;5093842;28;19981;-59
2023/05/28 05:22:26;;;;;;;;;;;20.50;93.30;;;;;;5112055;28;19908;-59
2023/05/28 05:24:52;;;;;;;;;;;20.50;93.10;;;;;;5114386;28;19912;-59
2023/05/28 05:27:17;;;;;;;;;;;20.50;93.00;;;;;;5113878;28;19915;-59
2023/05/28 05:29:43;;;;;;;;;;;20.50;93.10;;;;;;5113840;28;20377;-59
2023/05/28 05:32:11;;;;;;;;;;;20.50;93.10;;;;;;5107425;28;20033;-60
2023/05/28 05:34:37;;;;;;;;;;;20.50;93.10;;;;;;5104448;28;19916;-59
2023/05/28 05:37:02;;;;;;;;;;;20.50;93.10;;;;;;5063241;28;19919;-60
2023/05/28 05:39:28;;;;;;;;;;;20.50;93.00;;;;;;5092676;28;20305;-59
2023/05/28 05:41:54;;;;;;;;;;;20.50;93.00;;;;;;5072289;28;19908;-59
2023/05/28 05:44:19;;;;;;;;;;;20.50;93.00;;;;;;5097298;28;19967;-59
2023/05/28 05:46:45;;;;;;;;;;;20.50;92.90;;;;;;5089771;28;20278;-59
2023/05/28 05:49:10;;;;;;;;;;;20.50;92.90;;;;;;5104572;28;19919;-60
2023/05/28 05:51:36;;;;;;;;;;;20.50;93.00;;;;;;5110671;28;19912;-64
2023/05/28 05:54:02;;;;;;;;;;;20.50;93.10;;;;;;5076489;28;19913;-61
2023/05/28 05:56:27;;;;;;;;;;;20.50;92.80;;;;;;5095015;28;19908;-61
2023/05/28 05:58:53;;;;;;;;;;;20.50;92.90;;;;;;5097063;28;19908;-62
2023/05/28 06:01:20;;;;;;;;;;;20.40;92.80;;;;;;5088498;28;19965;-62
2023/05/28 06:03:45;;;;;;;;;;;20.40;92.90;;;;;;5113484;28;19912;-62
2023/05/28 06:06:11;;;;;;;;;;;20.50;93.00;;;;;;5096652;28;19912;-64
2023/05/28 06:08:37;;;;;;;;;;;20.40;92.90;;;;;;5103309;28;19916;-63
2023/05/28 06:11:02;;;;;;;;;;;20.50;93.00;;;;;;5107855;28;20301;-63
2023/05/28 06:13:28;;;;;;;;;;;20.50;93.00;;;;;;5108632;28;19915;-62
2023/05/28 06:15:54;;;;;;;;;;;20.50;92.90;;;;;;5098446;28;19912;-62
2023/05/28 06:18:19;;;;;;;;;;;20.50;92.70;;;;;;5098111;28;19922;-65
2023/05/28 06:20:45;;;;;;;;;;;20.50;92.50;;;;;;5100568;28;19957;-65
2023/05/28 06:23:10;;;;;;;;;;;20.50;92.60;;;;;;5094238;28;19984;-64
2023/05/28 06:25:37;;;;;;;;;;;20.50;92.70;;;;;;5116167;28;20028;-66
2023/05/28 06:28:02;;;;;;;;;;;20.50;92.70;;;;;;5096515;28;19912;-63
2023/05/28 06:30:28;;;;;;;;;;;20.50;92.70;;;;;;5110702;28;19935;-62
2023/05/28 06:32:53;;;;;;;;;;;20.50;92.70;;;;;;5108974;28;19912;-61
2023/05/28 06:35:19;;;;;;;;;;;20.50;92.50;;;;;;5094038;28;19962;-62
2023/05/28 06:37:44;;;;;;;;;;;20.50;92.50;;;;;;5094830;28;19908;-62
2023/05/28 06:40:10;;;;;;;;;;;20.50;92.50;;;;;;5106206;28;20285;-64
2023/05/28 06:42:37;;;;;;;;;;;20.50;92.30;;;;;;5116308;28;19915;-63
2023/05/28 06:45:02;;;;;;;;;;;20.50;92.50;;;;;;5116422;28;19919;-61
2023/05/28 06:47:28;;;;;;;;;;;20.50;92.50;;;;;;5112639;28;19964;-61
2023/05/28 06:49:53;;;;;;;;;;;20.50;92.60;;;;;;5092241;28;19912;-63
2023/05/28 06:52:19;;;;;;;;;;;20.50;92.50;;;;;;5092642;28;19968;-61
2023/05/28 06:54:45;;;;;;;;;;;20.50;92.80;;;;;;5116409;28;19969;-63
2023/05/28 06:57:10;;;;;;;;;;;20.50;92.90;;;;;;5116106;28;20003;-61
2023/05/28 06:59:36;;;;;;;;;;;20.50;93.00;;;;;;5105693;28;19912;-59
2023/05/28 07:02:01;;;;;;;;;;;20.50;93.00;;;;;;5098456;28;19912;-62
2023/05/28 07:04:26;;;;;;;;;;;20.50;93.00;;;;;;5115898;28;19916;-62
2023/05/28 07:06:53;;;;;;;;;;;20.50;93.00;;;;;;5094657;28;19948;-62
2023/05/28 07:09:18;;;;;;;;;;;20.50;92.70;;;;;;5093464;28;19912;-62
2023/05/28 07:11:44;;;;;;;;;;;20.50;92.80;;;;;;5080410;28;19912;-61
2023/05/28 07:14:09;;;;;;;;;;;20.50;92.90;;;;;;5104659;28;19922;-62
2023/05/28 07:16:35;;;;;;;;;;;20.50;93.00;;;;;;5101128;28;19919;-62
2023/05/28 07:19:00;;;;;;;;;;;20.50;93.00;;;;;;5095201;28;19908;-63
2023/05/28 07:21:26;;;;;;;;;;;20.60;93.00;;;;;;5085753;28;19954;-63
2023/05/28 07:23:51;;;;;;;;;;;20.50;93.00;;;;;;5115753;28;20345;-62
2023/05/28 07:26:17;;;;;;;;;;;20.50;92.90;;;;;;5115774;28;19954;-62
2023/05/28 07:28:42;;;;;;;;;;;20.60;92.90;;;;;;5115405;28;20421;-63
2023/05/28 07:31:08;;;;;;;;;;;20.50;93.00;;;;;;5097254;28;19912;-63
2023/05/28 07:33:33;;;;;;;;;;;20.60;92.90;;;;;;5113884;28;19937;-60
2023/05/28 07:36:00;;;;;;;;;;;20.60;92.70;;;;;;5095785;28;19915;-61
2023/05/28 07:38:25;;;;;;;;;;;20.50;92.60;;;;;;5091183;28;20346;-61
2023/05/28 07:40:50;;;;;;;;;;;20.50;92.40;;;;;;5113626;28;19907;-63
2023/05/28 07:43:16;;;;;;;;;;;20.50;92.40;;;;;;5111577;28;20272;-66
2023/05/28 07:45:41;;;;;;;;;;;20.60;92.50;;;;;;5115228;28;19943;-60
2023/05/28 07:48:07;;;;;;;;;;;20.50;92.80;;;;;;5115394;28;20278;-55
2023/05/28 07:50:33;;;;;;;;;;;20.50;92.90;;;;;;5104882;28;19912;-58
2023/05/28 07:53:01;;;;;;;;;;;20.60;93.00;;;;;;5115354;28;19908;-60
2023/05/28 07:55:27;;;;;;;;;;;20.60;93.10;;;;;;5115249;28;20010;-58
2023/05/28 07:57:52;;;;;;;;;;;20.60;93.10;;;;;;5097009;28;20402;-59
2023/05/28 08:00:18;;;;;;;;;;;20.60;92.80;;;;;;5088258;28;19919;-59
2023/05/28 08:02:44;;;;;;;;;;;20.60;92.60;;;;;;5103309;28;19916;-61
2023/05/28 08:05:09;;;;;;;;;;;20.60;93.00;;;;;;5094636;28;19947;-57
2023/05/28 08:07:35;;;;;;;;;;;20.60;92.60;;;;;;5094660;28;19974;-60
2023/05/28 08:10:01;;;;;;;;;;;20.60;92.90;;;;;;5093639;28;20458;-62
2023/05/28 08:12:26;;;;;;;;;;;20.60;93.00;;;;;;5082658;28;20271;-59
2023/05/28 08:14:52;;;;;;;;;;;20.60;92.90;;;;;;5103432;28;19919;-62
2023/05/28 08:17:22;;;;;;;;;;;20.60;92.80;;;;;;5095145;28;20443;-63
2023/05/28 08:19:47;;;;;;;;;;;20.60;92.20;;;;;;5091171;28;19916;-61
2023/05/28 08:22:13;;;;;;;;;;;20.60;92.50;;;;;;5110971;28;19915;-58
2023/05/28 08:24:38;;;;;;;;;;;20.60;92.40;;;;;;5101716;28;19916;-59
2023/05/28 08:27:04;;;;;;;;;;;20.60;92.20;;;;;;5096086;28;19916;-61
2023/05/28 08:29:29;;;;;;;;;;;20.60;92.20;;;;;;5092689;28;20027;-58
2023/05/28 08:31:57;;;;;;;;;;;20.60;92.20;;;;;;5093051;28;19995;-55
2023/05/28 08:34:23;;;;;;;;;;;20.60;92.20;;;;;;5094256;28;19909;-56
2023/05/28 08:36:48;;;;;;;;;;;20.60;92.50;;;;;;5093690;28;20358;-60
2023/05/28 08:39:14;;;;;;;;;;;20.60;92.20;;;;;;5113613;28;19912;-61
2023/05/28 08:41:39;;;;;;;;;;;20.60;92.30;;;;;;5105044;28;20460;-61
2023/05/28 08:44:05;;;;;;;;;;;20.60;91.90;;;;;;5114250;28;19981;-61
2023/05/28 08:46:31;;;;;;;;;;;20.60;92.40;;;;;;5096235;28;20001;-61
2023/05/28 08:48:57;;;;;;;;;;;20.60;92.20;;;;;;5093311;28;19965;-61
2023/05/28 08:51:24;;;;;;;;;;;20.60;92.30;;;;;;5106527;28;19912;-60
2023/05/28 08:53:50;;;;;;;;;;;20.60;92.40;;;;;;5095647;28;19912;-61
2023/05/28 08:56:16;;;;;;;;;;;20.60;92.20;;;;;;5113970;28;19951;-60
2023/05/28 08:58:42;;;;;;;;;;;20.60;92.10;;;;;;5099376;28;20374;-60
2023/05/28 09:01:08;;;;;;;;;;;20.60;92.20;;;;;;5092002;28;20370;-61
2023/05/28 09:03:34;;;;;;;;;;;20.60;91.90;;;;;;5075630;28;19912;-61
2023/05/28 09:05:59;;;;;;;;;;;20.60;92.70;;;;;;5093791;28;19916;-61
2023/05/28 09:08:25;;;;;;;;;;;20.60;92.00;;;;;;5103272;28;19912;-61
2023/05/28 09:10:50;;;;;;;;;;;20.60;91.90;;;;;;5093555;28;19931;-58
2023/05/28 09:13:19;;;;;;;;;;;20.60;92.10;;;;;;5093496;28;20041;-59
2023/05/28 09:15:49;;;;;;;;;;;20.50;91.90;;;;;;5098057;28;19957;-59
2023/05/28 09:18:18;;;;;;;;;;;20.50;91.80;;;;;;5112308;28;19908;-59
2023/05/28 09:20:44;;;;;;;;;;;20.50;91.90;;;;;;5097216;28;20001;-59
2023/05/28 09:23:09;;;;;;;;;;;20.50;92.00;;;;;;5114291;28;20379;-59
2023/05/28 09:25:36;;;;;;;;;;;20.50;91.90;;;;;;5113994;28;20401;-59
2023/05/28 09:28:01;;;;;;;;;;;20.50;91.90;;;;;;5114215;28;19954;-59
2023/05/28 09:30:29;;;;;;;;;;;20.50;91.70;;;;;;5114782;28;19935;-59
2023/05/28 09:33:07;;;;;;;;;;;20.50;91.80;;;;;;5117959;28;19907;-59
2023/05/28 09:35:33;;;;;;;;;;;20.50;91.70;;;;;;5118030;28;19954;-59
2023/05/28 09:38:07;;;;;;;;;;;20.50;91.80;;;;;;5102323;28;20007;-59
2023/05/28 09:40:42;;;;;;;;;;;20.50;91.80;;;;;;5097367;28;19908;-59
2023/05/28 09:43:08;;;;;;;;;;;20.50;91.80;;;;;;5097336;28;20274;-59
2023/05/28 09:45:34;;;;;;;;;;;20.50;91.70;;;;;;5097719;28;19908;-59
2023/05/28 09:48:00;;;;;;;;;;;20.50;91.70;;;;;;5078908;28;20385;-59
2023/05/28 09:50:25;;;;;;;;;;;20.50;92.10;;;;;;5097178;28;19908;-59
2023/05/28 09:52:53;;;;;;;;;;;20.50;91.90;;;;;;5097248;28;20433;-59
2023/05/28 09:55:21;;;;;;;;;;;20.50;92.20;;;;;;5097021;28;19908;-59
2023/05/28 09:57:51;;;;;;;;;;;20.50;91.90;;;;;;5097184;28;19908;-60
2023/05/28 10:00:26;;;;;;;;;;;20.50;91.80;;;;;;5097269;28;20370;-59
2023/05/28 10:02:54;;;;;;;;;;;20.50;92.20;;;;;;5096876;28;19912;-59
2023/05/28 10:05:21;;;;;;;;;;;20.50;91.90;;;;;;5088559;28;19981;-60
2023/05/28 10:07:48;;;;;;;;;;;20.50;92.10;;;;;;5090533;28;19931;-60
2023/05/28 10:10:15;;;;;;;;;;;20.50;91.70;;;;;;5094892;28;20009;-60
2023/05/28 10:12:41;;;;;;;;;;;20.50;91.60;;;;;;5096984;28;19916;-60
2023/05/28 10:15:07;;;;;;;;;;;20.50;91.80;;;;;;5095522;28;19932;-58
2023/05/28 10:17:33;;;;;;;;;;;20.50;92.20;;;;;;5084014;28;20379;-59
2023/05/28 10:20:00;;;;;;;;;;;20.50;91.60;;;;;;5096657;28;19908;-58
2023/05/28 10:22:26;;;;;;;;;;;20.40;92.10;;;;;;5085459;28;20308;-58
2023/05/28 10:24:51;;;;;;;;;;;20.50;91.50;;;;;;5096294;28;19923;-58
2023/05/28 10:27:18;;;;;;;;;;;20.50;91.50;;;;;;5096769;28;19908;-59
2023/05/28 10:29:45;;;;;;;;;;;20.50;91.30;;;;;;5096550;28;19916;-61
2023/05/28 10:32:15;;;;;;;;;;;20.50;91.60;;;;;;5096122;28;19915;-59
2023/05/28 10:34:41;;;;;;;;;;;20.50;92.00;;;;;;5096075;28;19994;-59
2023/05/28 10:37:08;;;;;;;;;;;20.50;91.50;;;;;;5078059;28;19954;-60
2023/05/28 10:39:45;;;;;;;;;;;20.50;91.60;;;;;;5096058;28;19958;-59
2023/05/28 10:42:18;;;;;;;;;;;20.50;91.50;;;;;;5077603;28;19908;-59
2023/05/28 10:44:59;;;;;;;;;;;20.50;91.70;;;;;;5077689;28;20367;-60
2023/05/28 10:47:34;;;;;;;;;;;20.50;91.90;;;;;;5096025;28;19931;-60
2023/05/28 10:50:03;;;;;;;;;;;20.50;92.10;;;;;;5095752;28;19912;-60
2023/05/28 10:52:30;;;;;;;;;;;20.50;91.90;;;;;;5096122;28;19908;-59
2023/05/28 10:54:56;;;;;;;;;;;20.50;92.00;;;;;;5099611;28;20282;-60
2023/05/28 10:57:22;;;;;;;;;;;20.50;92.00;;;;;;5095894;28;19919;-60
2023/05/28 10:59:51;;;;;;;;;;;20.50;91.80;;;;;;5094476;28;20378;-62
2023/05/28 11:02:19;;;;;;;;;;;20.50;92.20;;;;;;5108757;28;19947;-60
2023/05/28 11:04:45;;;;;;;;;;;20.50;91.90;;;;;;5113012;28;19915;-61
2023/05/28 11:07:11;;;;;;;;;;;20.50;92.40;;;;;;5094253;28;20286;-60
2023/05/28 11:09:38;;;;;;;;;;;20.50;92.40;;;;;;5089177;28;19914;-58
2023/05/28 11:12:04;;;;;;;;;;;20.50;92.30;;;;;;5095967;28;19912;-59
2023/05/28 11:14:33;;;;;;;;;;;20.50;92.00;;;;;;5095681;28;19966;-58
2023/05/28 11:16:58;;;;;;;;;;;20.50;91.90;;;;;;5094815;28;20286;-59
2023/05/28 11:19:23;;;;;;;;;;;20.50;92.00;;;;;;5115761;28;19994;-59
2023/05/28 11:21:50;;;;;;;;;;;20.60;92.00;;;;;;5093829;28;19969;-56
2023/05/28 11:24:15;;;;;;;;;;;20.50;92.00;;;;;;5075635;28;19916;-52
2023/05/28 11:26:41;;;;;;;;;;;20.50;92.00;;;;;;5104717;28;20427;-57
2023/05/28 11:29:06;;;;;;;;;;;20.60;92.20;;;;;;5105716;28;19919;-59
2023/05/28 11:31:39;;;;;;;;;;;20.60;91.90;;;;;;5098980;28;19916;-60
2023/05/28 11:34:04;;;;;;;;;;;20.50;91.60;;;;;;5079945;28;19912;-61
2023/05/28 11:36:31;;;;;;;;;;;20.60;91.70;;;;;;5091362;28;19965;-61
2023/05/28 11:39:01;;;;;;;;;;;20.60;91.80;;;;;;5093435;28;20006;-62
2023/05/28 11:41:26;;;;;;;;;;;20.60;91.60;;;;;;5092504;28;20002;-61
2023/05/28 11:43:52;;;;;;;;;;;20.60;91.70;;;;;;5076638;28;19974;-61
2023/05/28 11:46:21;;;;;;;;;;;20.50;91.70;;;;;;5101755;28;19919;-61
2023/05/28 11:48:46;;;;;;;;;;;20.60;91.60;;;;;;5112929;28;19908;-62
2023/05/28 11:51:12;;;;;;;;;;;20.60;91.70;;;;;;5082266;28;19919;-61
2023/05/28 11:53:42;;;;;;;;;;;20.60;91.50;;;;;;5074781;28;19908;-61
2023/05/28 11:56:08;;;;;;;;;;;20.60;91.70;;;;;;5107460;28;19950;-59
2023/05/28 11:58:37;;;;;;;;;;;20.60;91.60;;;;;;5096107;28;19912;-58
2023/05/28 12:01:03;;;;;;;;;;;20.60;91.70;;;;;;5094812;28;19908;-60
2023/05/28 12:03:28;;;;;;;;;;;20.60;91.60;;;;;;5097930;28;19963;-55
2023/05/28 12:05:54;;;;;;;;;;;20.60;91.60;;;;;;5095123;28;20370;-61
2023/05/28 12:08:19;;;;;;;;;;;20.60;91.90;;;;;;5097067;28;19915;-62
2023/05/28 12:10:45;;;;;;;;;;;20.60;91.40;;;;;;5093263;28;19916;-62
2023/05/28 12:13:13;;;;;;;;;;;20.60;92.00;;;;;;5100596;28;19916;-59
2023/05/28 12:15:39;;;;;;;;;;;20.60;91.50;;;;;;5092197;28;20316;-59
2023/05/28 12:18:05;;;;;;;;;;;20.60;91.60;;;;;;5075872;28;19908;-59
2023/05/28 12:20:34;;;;;;;;;;;20.60;91.90;;;;;;5095921;28;19912;-59
2023/05/28 12:23:07;;;;;;;;;;;20.60;91.60;;;;;;5104014;28;20382;-59
2023/05/28 12:25:42;;;;;;;;;;;20.60;91.80;;;;;;5086003;28;19943;-58
2023/05/28 12:28:07;;;;;;;;;;;20.60;91.70;;;;;;5093905;28;19908;-59
2023/05/28 12:30:33;;;;;;;;;;;20.60;92.20;;;;;;5106686;28;20278;-59
2023/05/28 12:32:58;;;;;;;;;;;20.60;91.80;;;;;;5094298;28;19908;-59
2023/05/28 12:35:24;;;;;;;;;;;20.60;91.90;;;;;;5086211;28;19912;-59
2023/05/28 12:37:49;;;;;;;;;;;20.60;91.90;;;;;;5099354;28;19916;-59
2023/05/28 12:40:15;;;;;;;;;;;20.60;91.90;;;;;;5096068;28;19919;-59
2023/05/28 12:42:41;;;;;;;;;;;20.60;92.20;;;;;;5087096;28;20021;-58
2023/05/28 12:45:06;;;;;;;;;;;20.60;92.00;;;;;;5094043;28;19916;-58
2023/05/28 12:47:32;;;;;;;;;;;20.60;91.90;;;;;;5093933;28;20283;-59
2023/05/28 12:49:58;;;;;;;;;;;20.60;92.00;;;;;;5094479;28;20428;-59
2023/05/28 12:52:23;;;;;;;;;;;20.60;92.20;;;;;;5093930;28;19908;-59
2023/05/28 12:54:49;;;;;;;;;;;20.60;91.70;;;;;;5094041;28;19915;-59
2023/05/28 12:57:14;;;;;;;;;;;20.60;91.60;;;;;;5093950;28;19915;-59
2023/05/28 12:59:40;;;;;;;;;;;20.60;92.10;;;;;;5094333;28;19957;-59
2023/05/28 13:02:06;;;;;;;;;;;20.60;91.50;;;;;;5093782;28;20019;-59
2023/05/28 13:04:31;;;;;;;;;;;20.60;91.30;;;;;;5082638;28;19966;-59
2023/05/28 13:06:57;;;;;;;;;;;20.60;91.10;;;;;;5095209;28;20350;-59
2023/05/28 13:09:22;;;;;;;;;;;20.60;91.40;;;;;;5097642;28;19908;-58
2023/05/28 13:11:48;;;;;;;;;;;20.60;91.50;;;;;;5097242;28;20397;-59
2023/05/28 13:14:13;;;;;;;;;;;20.60;91.40;;;;;;5098013;28;19912;-59
2023/05/28 13:16:39;;;;;;;;;;;20.60;91.50;;;;;;5097454;28;20081;-58
2023/05/28 13:19:04;;;;;;;;;;;20.60;91.70;;;;;;5079865;28;19914;-59
2023/05/28 13:21:31;;;;;;;;;;;20.60;91.70;;;;;;5107938;28;20045;-59
2023/05/28 13:24:00;;;;;;;;;;;20.60;91.60;;;;;;5118148;28;19934;-59
2023/05/28 13:26:26;;;;;;;;;;;20.60;91.40;;;;;;5118101;28;19933;-59
2023/05/28 13:28:52;;;;;;;;;;;20.60;91.70;;;;;;5117798;28;19998;-59
2023/05/28 13:31:18;;;;;;;;;;;20.60;91.80;;;;;;5103664;28;19999;-59
2023/05/28 13:33:43;;;;;;;;;;;20.60;91.80;;;;;;5097539;28;20279;-59
2023/05/28 13:36:09;;;;;;;;;;;20.60;91.40;;;;;;5097064;28;19908;-59
2023/05/28 13:38:34;;;;;;;;;;;20.60;91.20;;;;;;5097159;28;20355;-59
2023/05/28 13:41:02;;;;;;;;;;;20.60;91.60;;;;;;5103424;28;19913;-59
2023/05/28 13:43:29;;;;;;;;;;;20.60;91.70;;;;;;5101380;28;20359;-61
2023/05/28 13:45:54;;;;;;;;;;;20.60;91.80;;;;;;5097442;28;19994;-61
2023/05/28 13:48:20;;;;;;;;;;;20.60;91.30;;;;;;5097674;28;19946;-61
2023/05/28 13:50:45;;;;;;;;;;;20.60;91.20;;;;;;5096943;28;20386;-61
2023/05/28 13:53:11;;;;;;;;;;;20.60;91.20;;;;;;5097538;28;19951;-61
2023/05/28 13:55:36;;;;;;;;;;;20.60;91.00;;;;;;5096189;28;19919;-61
2023/05/28 13:58:02;;;;;;;;;;;20.60;91.10;;;;;;5096858;28;19908;-61
2023/05/28 14:00:27;;;;;;;;;;;20.60;91.20;;;;;;5095696;28;20009;-61
2023/05/28 14:02:52;;;;;;;;;;;20.60;91.30;;;;;;5087153;28;19915;-62
2023/05/28 14:05:18;;;;;;;;;;;20.60;91.20;;;;;;5094435;28;19916;-63
2023/05/28 14:07:43;;;;;;;;;;;20.60;91.30;;;;;;5091115;28;20285;-62
2023/05/28 14:10:09;;;;;;;;;;;20.60;91.50;;;;;;5111662;28;20401;-61